createdAt,value
2022-12-14T00:01:03.792Z,-1.02
2022-12-14T00:06:33.640Z,-1.2
2022-12-14T00:12:05.454Z,-1.24
2022-12-14T00:17:38.139Z,-1.1
2022-12-14T00:23:09.122Z,-0.78
2022-12-14T00:28:40.834Z,-0.79
2022-12-14T00:34:12.649Z,-0.67
2022-12-14T00:39:44.057Z,-0.72
2022-12-14T00:45:22.149Z,-0.63
2022-12-14T00:50:54.587Z,-0.92
2022-12-14T00:56:25.834Z,-0.8
2022-12-14T01:01:57.440Z,-0.82
2022-12-14T01:07:29.077Z,-1.07
2022-12-14T01:13:00.959Z,-0.84
2022-12-14T01:18:32.489Z,-1.06
2022-12-14T01:24:04.192Z,-0.68
2022-12-14T01:29:35.953Z,-0.76
2022-12-14T01:35:07.648Z,-0.72
2022-12-14T01:40:39.663Z,-0.72
2022-12-14T01:46:15.789Z,-0.65
2022-12-14T01:51:47.489Z,-0.61
2022-12-14T01:57:19.132Z,-0.53
2022-12-14T02:02:50.827Z,-0.54
2022-12-14T02:08:22.400Z,-0.65
2022-12-14T02:13:54.091Z,-0.6
2022-12-14T02:19:25.813Z,-0.79
2022-12-14T02:24:57.581Z,-0.59
2022-12-14T02:30:29.219Z,-0.74
2022-12-14T02:36:00.951Z,-0.63
2022-12-14T02:41:32.688Z,-0.46
2022-12-14T02:47:08.818Z,-0.44
2022-12-14T02:52:40.762Z,-0.6
2022-12-14T02:58:12.248Z,-0.53
2022-12-14T03:03:44.094Z,-0.52
2022-12-14T03:09:15.701Z,-0.8
2022-12-14T03:14:47.400Z,-0.66
2022-12-14T03:20:19.662Z,-0.66
2022-12-14T03:25:50.834Z,-0.74
2022-12-14T03:31:22.802Z,-0.73
2022-12-14T03:36:54.767Z,-0.67
2022-12-14T03:42:26.093Z,-0.49
2022-12-14T03:48:02.374Z,-0.59
2022-12-14T03:53:34.482Z,-0.45
2022-12-14T03:59:05.606Z,-0.46
2022-12-14T04:04:37.352Z,-0.58
2022-12-14T04:10:09.267Z,-0.53
2022-12-14T04:15:41.121Z,-0.73
2022-12-14T04:21:12.497Z,-0.62
2022-12-14T04:26:44.424Z,-0.63
2022-12-14T04:32:16.037Z,-0.41
2022-12-14T04:37:48.634Z,-0.42
2022-12-14T04:43:19.568Z,-0.34
2022-12-14T04:48:55.916Z,-0.14
2022-12-14T04:54:27.247Z,-0.18
2022-12-14T04:59:58.928Z,-0.28
2022-12-14T05:05:30.753Z,-0.45
2022-12-14T05:11:22.060Z,-0.29
2022-12-14T05:16:34.175Z,-0.14
2022-12-14T05:22:06.065Z,-0.14
2022-12-14T05:27:37.590Z,-0.27
2022-12-14T05:33:09.456Z,-0.29
2022-12-14T05:38:41.024Z,-0.4
2022-12-14T05:44:12.969Z,-0.02
2022-12-14T05:49:49.153Z,-0.22
2022-12-14T05:55:20.655Z,-0.2
2022-12-14T06:00:52.382Z,-0.21
2022-12-14T06:06:24.064Z,-0.14
2022-12-14T06:11:55.784Z,-0.19
2022-12-14T06:17:27.491Z,-0.26
2022-12-14T06:22:59.392Z,-0.46
2022-12-14T06:28:30.927Z,-0.37
2022-12-14T06:34:02.876Z,-0.36
2022-12-14T06:39:34.374Z,-0.55
2022-12-14T06:45:06.128Z,-0.47
2022-12-14T06:50:44.837Z,-0.7
2022-12-14T06:56:16.161Z,-0.61
2022-12-14T07:01:49.758Z,-0.97
2022-12-14T07:07:19.425Z,-0.87
2022-12-14T07:12:51.069Z,-0.96
2022-12-14T07:18:22.788Z,-1.1
2022-12-14T07:23:54.722Z,-0.97
2022-12-14T07:29:28.376Z,-0.95
2022-12-14T07:34:58.277Z,-1.0
2022-12-14T07:40:29.871Z,-0.84
2022-12-14T07:46:01.794Z,-0.7
2022-12-14T07:51:39.581Z,-0.76
2022-12-14T07:57:11.357Z,-0.68
2022-12-14T08:02:43.319Z,-0.61
2022-12-14T08:08:14.992Z,-0.9
2022-12-14T08:13:46.685Z,-0.72
2022-12-14T08:19:18.162Z,-0.65
2022-12-14T08:24:49.944Z,-0.62
2022-12-14T08:30:21.994Z,-0.47
2022-12-14T08:35:53.444Z,-0.32
2022-12-14T08:41:25.139Z,-0.41
2022-12-14T08:46:56.826Z,-0.59
2022-12-14T08:52:33.147Z,-0.26
2022-12-14T08:58:04.933Z,-0.03
2022-12-14T09:03:36.416Z,-0.25
2022-12-14T09:09:15.438Z,-0.37
2022-12-14T09:14:40.175Z,-0.39
2022-12-14T09:20:11.602Z,-0.37
2022-12-14T09:25:44.119Z,-0.21
2022-12-14T09:31:15.298Z,-0.48
2022-12-14T09:36:46.765Z,-0.45
2022-12-14T09:42:18.495Z,-0.32
2022-12-14T09:47:50.248Z,-0.31
2022-12-14T09:53:26.905Z,0.02
2022-12-14T09:58:58.039Z,-0.02
2022-12-14T10:04:29.750Z,0.25
2022-12-14T10:10:01.493Z,0.38
2022-12-14T10:15:33.218Z,0.33
2022-12-14T10:21:04.907Z,0.29
2022-12-14T10:26:36.631Z,0.3
2022-12-14T10:32:08.470Z,0.25
2022-12-14T10:37:40.101Z,0.29
2022-12-14T10:43:11.808Z,0.3
2022-12-14T10:48:43.699Z,0.08
2022-12-14T10:54:19.718Z,0.46
2022-12-14T11:00:05.492Z,0.58
2022-12-14T11:05:23.137Z,0.72
2022-12-14T11:10:54.815Z,1.07
2022-12-14T11:16:30.428Z,1.02
2022-12-14T11:21:58.294Z,1.07
2022-12-14T11:27:30.280Z,1.08
2022-12-14T11:33:01.753Z,0.97
2022-12-14T11:38:33.607Z,1.23
2022-12-14T11:44:05.205Z,1.04
2022-12-14T11:49:37.547Z,1.18
2022-12-14T11:55:15.000Z,1.13
2022-12-14T12:00:47.283Z,1.11
2022-12-14T12:06:18.675Z,1.43
2022-12-14T12:11:50.137Z,1.38
2022-12-14T12:17:21.967Z,1.55
2022-12-14T12:22:53.688Z,1.36
2022-12-14T12:28:25.457Z,1.22
2022-12-14T12:33:57.254Z,1.24
2022-12-14T12:39:28.785Z,0.8
2022-12-14T12:45:00.961Z,0.62
2022-12-14T12:50:32.285Z,0.62
2022-12-14T12:56:08.556Z,0.57
2022-12-14T13:01:40.284Z,0.5
2022-12-14T13:07:11.978Z,0.76
2022-12-14T13:12:43.779Z,0.65
2022-12-14T13:18:34.108Z,0.36
2022-12-14T13:23:47.006Z,0.72
2022-12-14T13:29:18.913Z,0.42
2022-12-14T13:34:50.448Z,0.22
2022-12-14T13:40:22.193Z,0.42
2022-12-14T13:45:54.093Z,0.31
2022-12-14T13:51:25.786Z,0.26
2022-12-14T13:57:02.150Z,0.06
2022-12-14T14:02:33.509Z,0.24
2022-12-14T14:08:05.714Z,0.52
2022-12-14T14:13:36.888Z,0.29
2022-12-14T14:19:08.895Z,0.47
2022-12-14T14:24:40.497Z,0.49
2022-12-14T14:30:12.073Z,0.85
2022-12-14T14:35:44.067Z,0.86
2022-12-14T14:41:17.308Z,0.58
2022-12-14T14:46:47.184Z,0.67
2022-12-14T14:52:18.926Z,0.96
2022-12-14T14:57:55.390Z,0.43
2022-12-14T15:03:26.983Z,0.67
2022-12-14T15:08:58.661Z,0.42
2022-12-14T15:14:30.439Z,0.53
2022-12-14T15:20:02.425Z,0.16
2022-12-14T15:25:34.329Z,0.18
2022-12-14T15:31:05.489Z,0.14
2022-12-14T15:36:37.139Z,0.07
2022-12-14T15:42:08.845Z,0.13
2022-12-14T15:47:40.626Z,0.42
2022-12-14T15:53:12.323Z,0.2
2022-12-14T15:58:48.776Z,0.27
2022-12-14T16:04:20.186Z,0.34
2022-12-14T16:09:52.268Z,0.54
2022-12-14T16:15:23.561Z,0.22
2022-12-14T16:20:55.360Z,0.31
2022-12-14T16:26:27.042Z,0.02
2022-12-14T16:31:58.843Z,0.17
2022-12-14T16:37:33.275Z,0.24
2022-12-14T16:43:02.556Z,0.4
2022-12-14T16:48:34.071Z,0.34
2022-12-14T16:54:05.701Z,0.33
2022-12-14T16:59:41.842Z,0.24
2022-12-14T17:05:13.842Z,0.02
2022-12-14T17:10:45.973Z,0.16
2022-12-14T17:16:17.136Z,0.0
2022-12-14T17:21:49.092Z,-0.15
2022-12-14T17:27:20.390Z,0.15
2022-12-14T17:32:52.878Z,0.14
2022-12-14T17:38:23.822Z,0.07
2022-12-14T17:43:57.086Z,0.13
2022-12-14T17:49:27.282Z,0.18
2022-12-14T17:54:59.172Z,0.19
2022-12-14T18:00:35.357Z,0.26
2022-12-14T18:06:07.022Z,0.32
2022-12-14T18:11:49.292Z,0.27
2022-12-14T18:17:11.698Z,0.27
2022-12-14T18:22:42.104Z,-0.01
2022-12-14T18:28:13.938Z,-0.04
2022-12-14T18:33:45.695Z,0.16
2022-12-14T18:39:17.204Z,0.02
2022-12-14T18:44:48.946Z,0.28
2022-12-14T18:50:20.785Z,0.41
2022-12-14T18:55:52.597Z,0.29
2022-12-14T19:01:28.778Z,0.33
2022-12-14T19:07:00.409Z,0.67
2022-12-14T19:12:32.138Z,0.31
2022-12-14T19:18:03.718Z,0.38
2022-12-14T19:23:36.070Z,0.11
2022-12-14T19:29:07.186Z,0.1
2022-12-14T19:34:38.867Z,0.03
2022-12-14T19:40:13.657Z,-0.14
2022-12-14T19:45:42.443Z,0.17
2022-12-14T19:51:14.067Z,-0.08
2022-12-14T19:56:45.739Z,0.0
2022-12-14T20:02:21.956Z,-0.28
2022-12-14T20:07:53.637Z,-0.08
2022-12-14T20:13:25.505Z,-0.01
2022-12-14T20:18:57.090Z,-0.12
2022-12-14T20:24:29.012Z,0.02
2022-12-14T20:30:00.782Z,0.17
2022-12-14T20:35:32.445Z,0.16
2022-12-14T20:41:04.113Z,-0.04
2022-12-14T20:46:36.201Z,0.29
2022-12-14T20:52:07.679Z,0.27
2022-12-14T20:57:39.444Z,0.21
2022-12-14T21:03:15.697Z,0.34
2022-12-14T21:08:47.000Z,0.19
2022-12-14T21:14:19.088Z,0.35
2022-12-14T21:19:50.480Z,0.43
2022-12-14T21:25:22.174Z,0.39
2022-12-14T21:30:53.944Z,0.38
2022-12-14T21:36:25.639Z,0.42
2022-12-14T21:41:57.552Z,0.4
2022-12-14T21:47:29.425Z,0.31
2022-12-14T21:53:01.118Z,0.48
2022-12-14T21:58:32.605Z,0.44
2022-12-14T22:04:08.863Z,0.51
2022-12-14T22:09:40.604Z,0.41
2022-12-14T22:15:12.143Z,0.39
2022-12-14T22:20:43.780Z,0.38
2022-12-14T22:26:15.444Z,0.42
2022-12-14T22:31:47.230Z,0.34
2022-12-14T22:37:18.905Z,0.39
2022-12-14T22:42:50.697Z,0.36
2022-12-14T22:48:22.377Z,0.23
2022-12-14T22:53:54.143Z,0.35
2022-12-14T22:59:25.785Z,0.23
2022-12-14T23:05:03.941Z,0.3
2022-12-14T23:10:35.722Z,0.33
2022-12-14T23:16:07.382Z,0.4
2022-12-14T23:21:39.132Z,0.41
2022-12-14T23:27:10.877Z,0.47
2022-12-14T23:32:42.576Z,0.48
2022-12-14T23:38:14.319Z,0.47
2022-12-14T23:43:46.010Z,0.35
2022-12-14T23:49:17.805Z,0.3
2022-12-14T23:54:49.503Z,0.32
